createdAt,value
2023-05-09T00:00:57.632Z,53.25
2023-05-09T00:06:03.523Z,57.25
2023-05-09T00:11:08.345Z,47.00
2023-05-09T00:16:13.522Z,54.00
2023-05-09T00:21:18.545Z,46.25
2023-05-09T00:26:23.786Z,46.75
2023-05-09T00:31:28.608Z,52.75
2023-05-09T00:36:34.059Z,50.25
2023-05-09T00:41:39.302Z,48.50
2023-05-09T00:46:44.155Z,42.75
2023-05-09T00:51:49.679Z,45.75
2023-05-09T00:56:54.580Z,46.25
2023-05-09T01:01:59.662Z,47.25
2023-05-09T01:07:16.437Z,45.50
2023-05-09T01:12:28.457Z,45.50
2023-05-09T01:17:39.178Z,44.00
2023-05-09T01:22:47.681Z,50.50
2023-05-09T01:28:13.151Z,48.00
2023-05-09T01:33:20.042Z,44.00
2023-05-09T01:38:26.137Z,41.75
2023-05-09T01:43:31.986Z,44.25
2023-05-09T01:48:38.262Z,45.75
2023-05-09T01:53:44.060Z,46.00
2023-05-09T01:58:51.537Z,46.25
2023-05-09T02:03:56.684Z,51.75
2023-05-09T02:09:01.699Z,45.75
2023-05-09T02:14:08.840Z,53.00
2023-05-09T02:19:13.887Z,51.50
2023-05-09T02:24:19.236Z,53.00
2023-05-09T02:29:27.885Z,47.50
2023-05-09T02:34:33.458Z,47.75
2023-05-09T02:39:39.191Z,44.25
2023-05-09T02:44:43.974Z,45.50
2023-05-09T02:49:49.306Z,52.00
2023-05-09T02:54:54.212Z,47.50
2023-05-09T02:59:59.087Z,45.75
2023-05-09T03:05:04.816Z,47.50
2023-05-09T03:10:14.992Z,45.75
2023-05-09T03:15:20.195Z,48.50
2023-05-09T03:20:25.094Z,45.25
2023-05-09T03:25:30.193Z,48.50
2023-05-09T03:30:34.927Z,49.25
2023-05-09T03:35:40.916Z,48.50
2023-05-09T03:40:46.316Z,45.50
2023-05-09T03:45:52.410Z,44.50
2023-05-09T03:50:57.568Z,40.50
2023-05-09T03:56:05.088Z,37.50
2023-05-09T04:01:15.611Z,46.25
2023-05-09T04:06:22.168Z,48.25
2023-05-09T04:11:27.418Z,45.50
2023-05-09T04:16:33.171Z,51.75
2023-05-09T04:21:38.608Z,57.25
2023-05-09T04:26:43.666Z,56.75
2023-05-09T04:31:52.817Z,52.75
2023-05-09T04:37:01.404Z,55.75
2023-05-09T04:42:07.103Z,56.25
2023-05-09T04:47:12.195Z,55.50
2023-05-09T04:52:17.144Z,58.75
2023-05-09T04:57:21.900Z,57.25
2023-05-09T05:02:32.359Z,55.75
2023-05-09T05:07:37.678Z,54.75
2023-05-09T05:12:42.813Z,50.75
2023-05-09T05:17:50.223Z,56.50
2023-05-09T05:22:59.678Z,58.25
2023-05-09T05:28:06.025Z,55.50
2023-05-09T05:33:11.274Z,51.50
2023-05-09T05:38:16.543Z,51.50
2023-05-09T05:43:26.001Z,49.75
2023-05-09T05:48:30.925Z,47.75
2023-05-09T05:53:36.182Z,54.50
2023-05-09T05:58:41.047Z,51.25
2023-05-09T06:03:45.713Z,54.00
2023-05-09T06:08:51.606Z,51.25
2023-05-09T06:13:57.857Z,48.50
2023-05-09T06:19:02.736Z,46.50
2023-05-09T06:24:14.108Z,47.50
2023-05-09T06:29:21.325Z,48.00
2023-05-09T06:34:25.510Z,44.50
2023-05-09T06:39:30.056Z,48.00
2023-05-09T06:44:34.510Z,44.75
2023-05-09T06:49:38.990Z,41.75
2023-05-09T06:54:43.320Z,39.50
2023-05-09T06:59:48.026Z,39.00
2023-05-09T07:04:52.714Z,36.25
2023-05-09T07:10:07.385Z,40.75
2023-05-09T07:15:22.691Z,41.00
2023-05-09T07:20:33.793Z,39.50
2023-05-09T07:25:38.854Z,42.00
2023-05-09T07:30:45.019Z,36.25
2023-05-09T07:35:50.359Z,37.00
2023-05-09T07:40:55.256Z,41.75
2023-05-09T07:46:00.259Z,44.75
2023-05-09T07:51:04.858Z,35.50
2023-05-09T07:56:09.271Z,40.25
2023-05-09T08:01:13.593Z,39.75
2023-05-09T08:06:18.159Z,35.25
2023-05-09T08:11:23.057Z,38.25
2023-05-09T08:16:27.588Z,34.50
2023-05-09T08:21:32.084Z,37.00
2023-05-09T08:26:36.933Z,40.50
2023-05-09T08:31:41.349Z,38.00
2023-05-09T08:36:48.351Z,42.75
2023-05-09T08:41:53.716Z,36.75
2023-05-09T08:47:00.378Z,38.75
2023-05-09T08:52:04.941Z,43.00
2023-05-09T08:57:09.646Z,51.00
2023-05-09T09:02:15.901Z,44.25
2023-05-09T09:07:21.248Z,54.25
2023-05-09T09:12:26.464Z,50.25
2023-05-09T09:17:32.336Z,55.00
2023-05-09T09:22:37.201Z,46.25
2023-05-09T09:27:43.324Z,48.25
2023-05-09T09:32:48.016Z,49.00
2023-05-09T09:38:00.021Z,56.00
2023-05-09T09:43:08.663Z,48.50
2023-05-09T09:48:13.216Z,55.50
2023-05-09T09:53:17.811Z,55.75
2023-05-09T09:58:26.645Z,53.75
2023-05-09T10:03:37.167Z,55.00
2023-05-09T10:08:44.968Z,51.00
2023-05-09T10:13:49.514Z,47.25
2023-05-09T10:18:53.750Z,52.50
2023-05-09T10:23:58.767Z,44.75
2023-05-09T10:29:07.734Z,42.50
2023-05-09T10:34:15.027Z,49.50
2023-05-09T10:39:20.472Z,45.00
2023-05-09T10:44:25.584Z,42.50
2023-05-09T10:49:30.382Z,42.75
2023-05-09T10:54:38.233Z,43.50
2023-05-09T10:59:43.470Z,44.50
2023-05-09T11:04:48.080Z,42.00
2023-05-09T11:10:09.020Z,43.50
2023-05-09T11:15:14.385Z,43.75
2023-05-09T11:20:19.031Z,45.25
2023-05-09T11:25:27.338Z,42.50
2023-05-09T11:30:42.942Z,50.50
2023-05-09T11:35:47.261Z,36.50
2023-05-09T11:40:53.426Z,41.75
2023-05-09T11:45:58.673Z,40.75
2023-05-09T11:51:03.484Z,35.00
2023-05-09T11:56:07.983Z,38.50
2023-05-09T12:01:15.523Z,35.25
2023-05-09T12:06:21.026Z,44.50
2023-05-09T12:11:26.380Z,43.00
2023-05-09T12:16:32.697Z,42.00
2023-05-09T12:21:37.162Z,32.50
2023-05-09T12:26:41.808Z,40.25
2023-05-09T12:31:46.520Z,37.50
2023-05-09T12:36:54.602Z,37.00
2023-05-09T12:42:02.057Z,37.25
2023-05-09T12:47:07.620Z,39.25
2023-05-09T12:52:19.645Z,37.25
2023-05-09T12:57:25.611Z,39.25
2023-05-09T13:02:35.743Z,40.25
2023-05-09T13:07:44.357Z,41.50
2023-05-09T13:12:53.720Z,27.75
2023-05-09T13:17:59.251Z,30.75
2023-05-09T13:23:04.569Z,31.00
2023-05-09T13:28:10.209Z,41.00
2023-05-09T13:33:25.959Z,45.75
2023-05-09T13:38:38.233Z,31.00
2023-05-09T13:43:44.053Z,35.50
2023-05-09T13:48:49.364Z,29.00
2023-05-09T13:53:56.181Z,30.75
2023-05-09T13:59:13.281Z,36.25
2023-05-09T14:04:18.704Z,36.25
2023-05-09T14:09:23.861Z,32.75
2023-05-09T14:14:28.292Z,34.00
2023-05-09T14:19:34.244Z,33.75
2023-05-09T14:24:42.084Z,40.75
2023-05-09T14:29:47.367Z,29.25
2023-05-09T14:34:52.890Z,31.75
2023-05-09T14:39:58.198Z,30.50
2023-05-09T14:45:02.997Z,35.75
2023-05-09T14:50:08.714Z,27.75
2023-05-09T14:55:13.993Z,28.75
2023-05-09T15:00:22.500Z,32.25
2023-05-09T15:05:28.010Z,36.00
2023-05-09T15:10:34.141Z,32.25
2023-05-09T15:15:44.114Z,41.25
2023-05-09T15:20:54.949Z,29.75
2023-05-09T15:26:00.125Z,29.75
2023-05-09T15:31:07.263Z,27.75
2023-05-09T15:36:12.061Z,27.25
2023-05-09T15:41:20.023Z,29.75
2023-05-09T15:46:25.373Z,28.25
2023-05-09T15:51:32.169Z,24.75
2023-05-09T15:56:37.337Z,29.75
2023-05-09T16:01:42.922Z,26.00
2023-05-09T16:06:53.228Z,29.50
2023-05-09T16:11:59.578Z,30.75
2023-05-09T16:17:04.684Z,25.00
2023-05-09T16:22:13.005Z,24.25
2023-05-09T16:27:18.659Z,25.50
2023-05-09T16:32:25.217Z,27.75
2023-05-09T16:37:32.202Z,26.75
2023-05-09T16:42:44.301Z,24.75
2023-05-09T16:47:49.200Z,32.50
2023-05-09T16:52:54.930Z,32.25
2023-05-09T16:58:00.102Z,27.50
2023-05-09T17:03:05.021Z,28.50
2023-05-09T17:08:10.254Z,24.50
2023-05-09T17:13:15.642Z,22.75
2023-05-09T17:18:33.270Z,24.50
2023-05-09T17:23:43.254Z,25.50
2023-05-09T17:28:48.378Z,29.25
2023-05-09T17:33:53.684Z,26.25
2023-05-09T17:38:58.809Z,24.50
2023-05-09T17:44:03.819Z,22.00
2023-05-09T17:49:14.993Z,28.75
2023-05-09T17:54:22.783Z,25.25
2023-05-09T17:59:28.400Z,26.00
2023-05-09T18:04:35.554Z,25.50
2023-05-09T18:09:40.478Z,22.00
2023-05-09T18:14:45.414Z,25.50
2023-05-09T18:19:50.571Z,21.25
2023-05-09T18:24:55.694Z,22.50
2023-05-09T18:30:00.651Z,22.25
2023-05-09T18:35:05.594Z,27.50
2023-05-09T18:40:16.427Z,25.25
2023-05-09T18:45:22.748Z,23.50
2023-05-09T18:50:27.756Z,23.75
2023-05-09T18:55:32.824Z,24.75
2023-05-09T19:00:37.996Z,21.00
2023-05-09T19:05:43.337Z,25.00
2023-05-09T19:10:48.030Z,20.50
2023-05-09T19:15:53.045Z,22.00
2023-05-09T19:20:59.250Z,26.00
2023-05-09T19:26:04.956Z,27.00
2023-05-09T19:31:10.466Z,24.50
2023-05-09T19:36:15.501Z,25.00
2023-05-09T19:41:20.275Z,21.75
2023-05-09T19:46:25.330Z,25.00
2023-05-09T19:51:30.958Z,21.75
2023-05-09T19:56:35.764Z,27.75
2023-05-09T20:01:40.687Z,23.75
2023-05-09T20:06:46.622Z,23.75
2023-05-09T20:11:51.836Z,24.00
2023-05-09T20:16:56.622Z,20.00
2023-05-09T20:22:02.541Z,22.25
2023-05-09T20:27:07.577Z,21.50
2023-05-09T20:32:12.620Z,21.25
2023-05-09T20:37:17.506Z,25.50
2023-05-09T20:42:22.455Z,20.50
2023-05-09T20:47:28.020Z,20.50
2023-05-09T20:52:32.663Z,20.00
2023-05-09T20:57:37.713Z,27.25
2023-05-09T21:02:42.903Z,22.25
2023-05-09T21:07:47.812Z,26.50
2023-05-09T21:12:52.732Z,23.50
2023-05-09T21:17:58.488Z,25.50
2023-05-09T21:23:03.325Z,19.75
2023-05-09T21:28:08.611Z,21.50
2023-05-09T21:33:13.493Z,22.00
2023-05-09T21:38:18.245Z,23.50
2023-05-09T21:43:23.660Z,30.50
2023-05-09T21:48:28.593Z,24.75
2023-05-09T21:53:33.410Z,20.75
2023-05-09T21:58:39.162Z,24.00
2023-05-09T22:03:44.659Z,27.25
2023-05-09T22:08:49.494Z,22.50
2023-05-09T22:13:54.212Z,25.00
2023-05-09T22:18:58.985Z,24.75
2023-05-09T22:24:03.707Z,22.75
2023-05-09T22:29:08.899Z,34.00
2023-05-09T22:34:13.853Z,28.00
2023-05-09T22:39:18.794Z,25.25
2023-05-09T22:44:23.595Z,30.75
2023-05-09T22:49:28.215Z,28.00
2023-05-09T22:54:32.836Z,28.75
2023-05-09T22:59:38.334Z,29.75
2023-05-09T23:04:43.295Z,32.00
2023-05-09T23:09:48.113Z,33.75
2023-05-09T23:14:53.163Z,29.50
2023-05-09T23:19:57.899Z,30.00
2023-05-09T23:25:03.014Z,38.00
2023-05-09T23:30:08.925Z,35.25
2023-05-09T23:35:13.811Z,29.00
2023-05-09T23:40:18.775Z,29.00
2023-05-09T23:45:24.211Z,30.00
2023-05-09T23:50:29.264Z,33.00
2023-05-09T23:55:34.226Z,26.50
